sensor_id;sensor_type;location;lat;lon;timestamp;P1;durP1;ratioP1;P2;durP2;ratioP2
6027;SDS011;3042;43.194;27.646;2023-06-22T00:01:00;68.57;;;63.50;;
6027;SDS011;3042;43.194;27.646;2023-06-22T00:03:27;51.87;;;47.73;;
6027;SDS011;3042;43.194;27.646;2023-06-22T00:05:56;49.17;;;45.00;;
6027;SDS011;3042;43.194;27.646;2023-06-22T00:08:23;47.97;;;43.00;;
6027;SDS011;3042;43.194;27.646;2023-06-22T00:10:50;50.40;;;45.90;;
6027;SDS011;3042;43.194;27.646;2023-06-22T00:13:18;49.40;;;45.67;;
6027;SDS011;3042;43.194;27.646;2023-06-22T00:15:45;45.37;;;41.47;;
6027;SDS011;3042;43.194;27.646;2023-06-22T00:18:12;49.07;;;44.93;;
6027;SDS011;3042;43.194;27.646;2023-06-22T00:20:39;50.17;;;46.37;;
6027;SDS011;3042;43.194;27.646;2023-06-22T00:23:08;52.93;;;42.90;;
6027;SDS011;3042;43.194;27.646;2023-06-22T00:25:35;44.43;;;41.07;;
6027;SDS011;3042;43.194;27.646;2023-06-22T00:28:03;48.13;;;44.70;;
6027;SDS011;3042;43.194;27.646;2023-06-22T00:30:31;54.53;;;49.20;;
6027;SDS011;3042;43.194;27.646;2023-06-22T00:32:58;47.37;;;43.40;;
6027;SDS011;3042;43.194;27.646;2023-06-22T00:35:26;44.53;;;40.30;;
6027;SDS011;3042;43.194;27.646;2023-06-22T00:37:54;63.63;;;58.87;;
6027;SDS011;3042;43.194;27.646;2023-06-22T00:40:27;58.63;;;54.27;;
6027;SDS011;3042;43.194;27.646;2023-06-22T00:42:55;51.57;;;47.47;;
6027;SDS011;3042;43.194;27.646;2023-06-22T00:45:22;54.63;;;50.27;;
6027;SDS011;3042;43.194;27.646;2023-06-22T00:47:51;47.50;;;43.30;;
6027;SDS011;3042;43.194;27.646;2023-06-22T00:50:20;49.83;;;45.07;;
6027;SDS011;3042;43.194;27.646;2023-06-22T00:52:49;50.37;;;45.33;;
6027;SDS011;3042;43.194;27.646;2023-06-22T00:55:19;52.50;;;48.70;;
6027;SDS011;3042;43.194;27.646;2023-06-22T00:57:48;57.80;;;52.40;;
6027;SDS011;3042;43.194;27.646;2023-06-22T01:00:16;58.63;;;53.00;;
6027;SDS011;3042;43.194;27.646;2023-06-22T01:02:45;56.07;;;51.13;;
6027;SDS011;3042;43.194;27.646;2023-06-22T01:05:17;53.27;;;48.63;;
6027;SDS011;3042;43.194;27.646;2023-06-22T01:07:47;58.70;;;52.10;;
6027;SDS011;3042;43.194;27.646;2023-06-22T01:10:28;57.00;;;51.30;;
6027;SDS011;3042;43.194;27.646;2023-06-22T01:13:07;54.57;;;49.90;;
6027;SDS011;3042;43.194;27.646;2023-06-22T01:15:41;53.80;;;50.00;;
6027;SDS011;3042;43.194;27.646;2023-06-22T01:18:14;58.83;;;55.03;;
6027;SDS011;3042;43.194;27.646;2023-06-22T01:20:43;58.77;;;53.97;;
6027;SDS011;3042;43.194;27.646;2023-06-22T01:23:15;56.83;;;53.10;;
6027;SDS011;3042;43.194;27.646;2023-06-22T01:25:54;53.80;;;50.43;;
6027;SDS011;3042;43.194;27.646;2023-06-22T01:31:16;57.90;;;49.87;;
6027;SDS011;3042;43.194;27.646;2023-06-22T01:33:46;49.23;;;45.17;;
6027;SDS011;3042;43.194;27.646;2023-06-22T01:36:17;44.37;;;41.27;;
6027;SDS011;3042;43.194;27.646;2023-06-22T01:38:44;48.60;;;43.40;;
6027;SDS011;3042;43.194;27.646;2023-06-22T01:41:13;45.10;;;42.00;;
6027;SDS011;3042;43.194;27.646;2023-06-22T01:43:42;44.67;;;40.60;;
6027;SDS011;3042;43.194;27.646;2023-06-22T01:46:11;44.80;;;40.10;;
6027;SDS011;3042;43.194;27.646;2023-06-22T01:48:39;44.23;;;40.10;;
6027;SDS011;3042;43.194;27.646;2023-06-22T01:51:07;45.80;;;41.20;;
6027;SDS011;3042;43.194;27.646;2023-06-22T01:53:34;42.77;;;38.97;;
6027;SDS011;3042;43.194;27.646;2023-06-22T01:56:01;44.03;;;40.40;;
6027;SDS011;3042;43.194;27.646;2023-06-22T01:58:29;45.10;;;41.00;;
6027;SDS011;3042;43.194;27.646;2023-06-22T02:00:58;50.13;;;42.10;;
6027;SDS011;3042;43.194;27.646;2023-06-22T02:03:41;43.37;;;38.60;;
6027;SDS011;3042;43.194;27.646;2023-06-22T02:06:10;49.10;;;44.57;;
6027;SDS011;3042;43.194;27.646;2023-06-22T02:08:45;57.10;;;52.07;;
6027;SDS011;3042;43.194;27.646;2023-06-22T02:11:16;49.50;;;45.57;;
6027;SDS011;3042;43.194;27.646;2023-06-22T02:13:46;46.60;;;43.10;;
6027;SDS011;3042;43.194;27.646;2023-06-22T02:16:15;47.90;;;43.80;;
6027;SDS011;3042;43.194;27.646;2023-06-22T02:18:47;52.53;;;48.27;;
6027;SDS011;3042;43.194;27.646;2023-06-22T02:21:16;51.73;;;47.33;;
6027;SDS011;3042;43.194;27.646;2023-06-22T02:23:43;50.83;;;46.60;;
6027;SDS011;3042;43.194;27.646;2023-06-22T02:26:11;48.30;;;43.90;;
6027;SDS011;3042;43.194;27.646;2023-06-22T02:28:39;49.90;;;45.00;;
6027;SDS011;3042;43.194;27.646;2023-06-22T02:31:06;50.43;;;46.23;;
6027;SDS011;3042;43.194;27.646;2023-06-22T02:33:33;58.23;;;52.40;;
6027;SDS011;3042;43.194;27.646;2023-06-22T02:36:02;50.80;;;46.70;;
6027;SDS011;3042;43.194;27.646;2023-06-22T02:38:30;57.23;;;51.93;;
6027;SDS011;3042;43.194;27.646;2023-06-22T02:40:59;59.00;;;55.23;;
6027;SDS011;3042;43.194;27.646;2023-06-22T02:43:27;54.87;;;51.57;;
6027;SDS011;3042;43.194;27.646;2023-06-22T02:45:54;57.57;;;52.57;;
6027;SDS011;3042;43.194;27.646;2023-06-22T02:48:22;53.57;;;49.93;;
6027;SDS011;3042;43.194;27.646;2023-06-22T02:50:50;54.43;;;50.57;;
6027;SDS011;3042;43.194;27.646;2023-06-22T02:53:19;54.13;;;49.90;;
6027;SDS011;3042;43.194;27.646;2023-06-22T02:55:46;46.30;;;42.20;;
6027;SDS011;3042;43.194;27.646;2023-06-22T02:58:13;49.27;;;44.97;;
6027;SDS011;3042;43.194;27.646;2023-06-22T03:00:40;49.50;;;44.97;;
6027;SDS011;3042;43.194;27.646;2023-06-22T03:03:07;44.37;;;40.27;;
6027;SDS011;3042;43.194;27.646;2023-06-22T03:05:35;45.40;;;40.57;;
6027;SDS011;3042;43.194;27.646;2023-06-22T03:08:02;48.33;;;43.13;;
6027;SDS011;3042;43.194;27.646;2023-06-22T03:10:31;42.47;;;38.37;;
6027;SDS011;3042;43.194;27.646;2023-06-22T03:12:58;40.47;;;36.57;;
6027;SDS011;3042;43.194;27.646;2023-06-22T03:15:25;37.53;;;33.53;;
6027;SDS011;3042;43.194;27.646;2023-06-22T03:17:54;36.70;;;33.00;;
6027;SDS011;3042;43.194;27.646;2023-06-22T03:20:21;29.80;;;27.30;;
6027;SDS011;3042;43.194;27.646;2023-06-22T03:22:49;29.27;;;26.60;;
6027;SDS011;3042;43.194;27.646;2023-06-22T03:25:16;28.97;;;26.10;;
6027;SDS011;3042;43.194;27.646;2023-06-22T03:27:44;39.67;;;27.40;;
6027;SDS011;3042;43.194;27.646;2023-06-22T03:30:13;30.67;;;27.70;;
6027;SDS011;3042;43.194;27.646;2023-06-22T03:32:40;31.10;;;26.30;;
6027;SDS011;3042;43.194;27.646;2023-06-22T03:35:08;27.77;;;25.10;;
6027;SDS011;3042;43.194;27.646;2023-06-22T03:37:38;29.43;;;26.20;;
6027;SDS011;3042;43.194;27.646;2023-06-22T03:40:05;30.23;;;27.37;;
6027;SDS011;3042;43.194;27.646;2023-06-22T03:42:33;31.13;;;27.77;;
6027;SDS011;3042;43.194;27.646;2023-06-22T03:45:03;25.63;;;23.03;;
6027;SDS011;3042;43.194;27.646;2023-06-22T03:47:30;29.70;;;22.20;;
6027;SDS011;3042;43.194;27.646;2023-06-22T03:49:58;24.03;;;21.53;;
6027;SDS011;3042;43.194;27.646;2023-06-22T03:52:25;27.50;;;20.97;;
6027;SDS011;3042;43.194;27.646;2023-06-22T03:54:52;23.90;;;21.90;;
6027;SDS011;3042;43.194;27.646;2023-06-22T03:57:20;28.10;;;23.80;;
6027;SDS011;3042;43.194;27.646;2023-06-22T03:59:47;25.27;;;22.77;;
6027;SDS011;3042;43.194;27.646;2023-06-22T04:02:15;31.00;;;23.40;;
6027;SDS011;3042;43.194;27.646;2023-06-22T04:04:43;25.73;;;23.17;;
6027;SDS011;3042;43.194;27.646;2023-06-22T04:07:10;30.73;;;27.70;;
6027;SDS011;3042;43.194;27.646;2023-06-22T04:09:37;30.83;;;26.67;;
6027;SDS011;3042;43.194;27.646;2023-06-22T04:12:04;35.30;;;26.60;;
6027;SDS011;3042;43.194;27.646;2023-06-22T04:14:32;35.00;;;27.70;;
6027;SDS011;3042;43.194;27.646;2023-06-22T04:16:59;31.90;;;25.27;;
6027;SDS011;3042;43.194;27.646;2023-06-22T04:19:28;30.97;;;23.93;;
6027;SDS011;3042;43.194;27.646;2023-06-22T04:21:55;35.00;;;25.73;;
6027;SDS011;3042;43.194;27.646;2023-06-22T04:24:22;38.37;;;26.90;;
6027;SDS011;3042;43.194;27.646;2023-06-22T04:26:49;25.47;;;21.53;;
6027;SDS011;3042;43.194;27.646;2023-06-22T04:29:20;26.60;;;24.10;;
6027;SDS011;3042;43.194;27.646;2023-06-22T04:31:55;31.10;;;27.35;;
6027;SDS011;3042;43.194;27.646;2023-06-22T04:34:23;42.73;;;25.20;;
6027;SDS011;3042;43.194;27.646;2023-06-22T04:36:53;34.90;;;23.80;;
6027;SDS011;3042;43.194;27.646;2023-06-22T04:39:20;36.07;;;24.37;;
6027;SDS011;3042;43.194;27.646;2023-06-22T04:41:47;54.67;;;25.40;;
6027;SDS011;3042;43.194;27.646;2023-06-22T04:44:16;33.77;;;22.70;;
6027;SDS011;3042;43.194;27.646;2023-06-22T04:46:49;29.05;;;25.92;;
6027;SDS011;3042;43.194;27.646;2023-06-22T04:49:19;32.17;;;28.27;;
6027;SDS011;3042;43.194;27.646;2023-06-22T04:51:47;41.37;;;28.37;;
6027;SDS011;3042;43.194;27.646;2023-06-22T04:54:18;66.40;;;31.77;;
6027;SDS011;3042;43.194;27.646;2023-06-22T04:56:45;48.00;;;30.37;;
6027;SDS011;3042;43.194;27.646;2023-06-22T04:59:14;30.40;;;26.47;;
6027;SDS011;3042;43.194;27.646;2023-06-22T05:01:44;67.73;;;27.27;;
6027;SDS011;3042;43.194;27.646;2023-06-22T05:04:11;81.60;;;31.52;;
6027;SDS011;3042;43.194;27.646;2023-06-22T05:06:38;34.93;;;28.07;;
6027;SDS011;3042;43.194;27.646;2023-06-22T05:09:05;26.70;;;24.40;;
6027;SDS011;3042;43.194;27.646;2023-06-22T05:11:34;47.88;;;31.00;;
6027;SDS011;3042;43.194;27.646;2023-06-22T05:14:01;40.63;;;26.00;;
6027;SDS011;3042;43.194;27.646;2023-06-22T05:16:28;27.33;;;24.73;;
6027;SDS011;3042;43.194;27.646;2023-06-22T05:18:55;111.43;;;39.50;;
6027;SDS011;3042;43.194;27.646;2023-06-22T05:21:23;40.60;;;32.10;;
6027;SDS011;3042;43.194;27.646;2023-06-22T05:23:51;46.00;;;29.20;;
6027;SDS011;3042;43.194;27.646;2023-06-22T05:26:20;29.27;;;26.40;;
6027;SDS011;3042;43.194;27.646;2023-06-22T05:28:49;28.87;;;26.10;;
6027;SDS011;3042;43.194;27.646;2023-06-22T05:31:16;35.22;;;30.92;;
6027;SDS011;3042;43.194;27.646;2023-06-22T05:33:45;35.17;;;30.87;;
6027;SDS011;3042;43.194;27.646;2023-06-22T05:36:13;46.40;;;25.77;;
6027;SDS011;3042;43.194;27.646;2023-06-22T05:38:40;28.57;;;26.07;;
6027;SDS011;3042;43.194;27.646;2023-06-22T05:41:08;31.97;;;28.77;;
6027;SDS011;3042;43.194;27.646;2023-06-22T05:43:35;44.37;;;31.77;;
6027;SDS011;3042;43.194;27.646;2023-06-22T05:46:04;47.10;;;31.53;;
6027;SDS011;3042;43.194;27.646;2023-06-22T05:48:31;38.50;;;31.55;;
6027;SDS011;3042;43.194;27.646;2023-06-22T05:50:58;34.47;;;30.87;;
6027;SDS011;3042;43.194;27.646;2023-06-22T05:53:26;37.97;;;31.30;;
6027;SDS011;3042;43.194;27.646;2023-06-22T05:55:53;34.93;;;31.23;;
6027;SDS011;3042;43.194;27.646;2023-06-22T05:58:20;42.50;;;30.63;;
6027;SDS011;3042;43.194;27.646;2023-06-22T06:00:47;40.00;;;25.70;;
6027;SDS011;3042;43.194;27.646;2023-06-22T06:03:16;28.43;;;25.60;;
6027;SDS011;3042;43.194;27.646;2023-06-22T06:05:43;33.97;;;25.38;;
6027;SDS011;3042;43.194;27.646;2023-06-22T06:08:14;49.30;;;24.05;;
6027;SDS011;3042;43.194;27.646;2023-06-22T06:10:41;28.73;;;26.05;;
6027;SDS011;3042;43.194;27.646;2023-06-22T06:13:08;27.75;;;24.95;;
6027;SDS011;3042;43.194;27.646;2023-06-22T06:15:35;30.35;;;24.90;;
6027;SDS011;3042;43.194;27.646;2023-06-22T06:18:03;26.15;;;23.85;;
6027;SDS011;3042;43.194;27.646;2023-06-22T06:20:33;28.55;;;24.45;;
6027;SDS011;3042;43.194;27.646;2023-06-22T06:23:00;21.08;;;19.23;;
6027;SDS011;3042;43.194;27.646;2023-06-22T06:25:28;21.77;;;19.65;;
6027;SDS011;3042;43.194;27.646;2023-06-22T06:27:55;22.10;;;20.15;;
6027;SDS011;3042;43.194;27.646;2023-06-22T06:30:22;25.17;;;22.80;;
6027;SDS011;3042;43.194;27.646;2023-06-22T06:32:49;24.05;;;21.40;;
6027;SDS011;3042;43.194;27.646;2023-06-22T06:35:17;30.15;;;22.33;;
6027;SDS011;3042;43.194;27.646;2023-06-22T06:37:45;25.55;;;23.40;;
6027;SDS011;3042;43.194;27.646;2023-06-22T06:40:16;23.70;;;22.08;;
6027;SDS011;3042;43.194;27.646;2023-06-22T06:42:44;25.08;;;22.98;;
6027;SDS011;3042;43.194;27.646;2023-06-22T06:45:15;27.25;;;24.33;;
6027;SDS011;3042;43.194;27.646;2023-06-22T06:47:43;24.35;;;22.38;;
6027;SDS011;3042;43.194;27.646;2023-06-22T06:50:10;31.77;;;29.65;;
6027;SDS011;3042;43.194;27.646;2023-06-22T06:52:38;24.85;;;22.98;;
6027;SDS011;3042;43.194;27.646;2023-06-22T06:55:07;24.23;;;22.10;;
6027;SDS011;3042;43.194;27.646;2023-06-22T06:57:37;25.27;;;23.20;;
6027;SDS011;3042;43.194;27.646;2023-06-22T07:00:05;24.90;;;22.70;;
6027;SDS011;3042;43.194;27.646;2023-06-22T07:02:37;26.30;;;23.47;;
6027;SDS011;3042;43.194;27.646;2023-06-22T07:05:05;26.70;;;24.10;;
6027;SDS011;3042;43.194;27.646;2023-06-22T07:07:34;29.80;;;23.20;;
6027;SDS011;3042;43.194;27.646;2023-06-22T07:10:01;32.60;;;29.20;;
6027;SDS011;3042;43.194;27.646;2023-06-22T07:12:36;32.87;;;30.30;;
6027;SDS011;3042;43.194;27.646;2023-06-22T07:15:04;32.23;;;28.80;;
6027;SDS011;3042;43.194;27.646;2023-06-22T07:17:34;29.97;;;27.47;;
6027;SDS011;3042;43.194;27.646;2023-06-22T07:20:01;31.13;;;28.37;;
6027;SDS011;3042;43.194;27.646;2023-06-22T07:22:33;33.40;;;30.27;;
6027;SDS011;3042;43.194;27.646;2023-06-22T07:25:00;32.80;;;28.07;;
6027;SDS011;3042;43.194;27.646;2023-06-22T07:27:35;29.57;;;27.13;;
6027;SDS011;3042;43.194;27.646;2023-06-22T07:30:05;38.83;;;27.27;;
6027;SDS011;3042;43.194;27.646;2023-06-22T07:32:33;27.97;;;25.30;;
6027;SDS011;3042;43.194;27.646;2023-06-22T07:35:00;32.73;;;29.70;;
6027;SDS011;3042;43.194;27.646;2023-06-22T07:37:28;29.73;;;27.13;;
6027;SDS011;3042;43.194;27.646;2023-06-22T07:39:56;30.10;;;27.37;;
6027;SDS011;3042;43.194;27.646;2023-06-22T07:42:24;30.30;;;27.60;;
6027;SDS011;3042;43.194;27.646;2023-06-22T07:44:53;48.37;;;29.10;;
6027;SDS011;3042;43.194;27.646;2023-06-22T07:47:21;30.30;;;27.90;;
6027;SDS011;3042;43.194;27.646;2023-06-22T07:49:50;39.60;;;28.20;;
6027;SDS011;3042;43.194;27.646;2023-06-22T07:52:20;27.13;;;25.23;;
6027;SDS011;3042;43.194;27.646;2023-06-22T07:54:49;38.43;;;35.07;;
6027;SDS011;3042;43.194;27.646;2023-06-22T07:57:16;33.30;;;29.80;;
6027;SDS011;3042;43.194;27.646;2023-06-22T07:59:43;28.10;;;25.60;;
6027;SDS011;3042;43.194;27.646;2023-06-22T08:02:12;34.05;;;31.42;;
6027;SDS011;3042;43.194;27.646;2023-06-22T08:04:39;30.60;;;28.10;;
6027;SDS011;3042;43.194;27.646;2023-06-22T08:07:07;36.57;;;34.00;;
6027;SDS011;3042;43.194;27.646;2023-06-22T08:09:35;47.77;;;31.83;;
6027;SDS011;3042;43.194;27.646;2023-06-22T08:12:03;30.70;;;27.60;;
6027;SDS011;3042;43.194;27.646;2023-06-22T08:14:31;34.37;;;31.30;;
6027;SDS011;3042;43.194;27.646;2023-06-22T08:17:01;34.50;;;31.70;;
6027;SDS011;3042;43.194;27.646;2023-06-22T08:19:30;29.93;;;27.70;;
6027;SDS011;3042;43.194;27.646;2023-06-22T08:21:58;31.57;;;29.37;;
6027;SDS011;3042;43.194;27.646;2023-06-22T08:24:25;28.53;;;26.63;;
6027;SDS011;3042;43.194;27.646;2023-06-22T08:26:55;30.53;;;28.33;;
6027;SDS011;3042;43.194;27.646;2023-06-22T08:29:22;28.90;;;26.80;;
6027;SDS011;3042;43.194;27.646;2023-06-22T08:31:50;36.20;;;32.60;;
6027;SDS011;3042;43.194;27.646;2023-06-22T08:34:17;35.43;;;30.27;;
6027;SDS011;3042;43.194;27.646;2023-06-22T08:36:48;27.53;;;25.53;;
6027;SDS011;3042;43.194;27.646;2023-06-22T08:39:17;31.70;;;28.70;;
6027;SDS011;3042;43.194;27.646;2023-06-22T08:41:45;28.73;;;25.67;;
6027;SDS011;3042;43.194;27.646;2023-06-22T08:44:12;25.63;;;23.30;;
6027;SDS011;3042;43.194;27.646;2023-06-22T08:46:40;23.33;;;21.40;;
6027;SDS011;3042;43.194;27.646;2023-06-22T08:49:07;21.37;;;19.87;;
6027;SDS011;3042;43.194;27.646;2023-06-22T08:51:35;28.33;;;25.70;;
6027;SDS011;3042;43.194;27.646;2023-06-22T08:54:06;22.70;;;21.20;;
6027;SDS011;3042;43.194;27.646;2023-06-22T08:56:36;30.00;;;27.93;;
6027;SDS011;3042;43.194;27.646;2023-06-22T08:59:03;22.63;;;21.27;;
6027;SDS011;3042;43.194;27.646;2023-06-22T09:01:33;21.93;;;20.60;;
6027;SDS011;3042;43.194;27.646;2023-06-22T09:04:00;23.10;;;21.60;;
6027;SDS011;3042;43.194;27.646;2023-06-22T09:06:28;21.13;;;19.83;;
6027;SDS011;3042;43.194;27.646;2023-06-22T09:08:56;26.00;;;23.60;;
6027;SDS011;3042;43.194;27.646;2023-06-22T09:11:26;25.80;;;24.00;;
6027;SDS011;3042;43.194;27.646;2023-06-22T09:13:53;24.10;;;22.00;;
6027;SDS011;3042;43.194;27.646;2023-06-22T09:16:21;24.90;;;23.00;;
6027;SDS011;3042;43.194;27.646;2023-06-22T09:18:48;21.60;;;20.03;;
6027;SDS011;3042;43.194;27.646;2023-06-22T09:21:15;23.63;;;21.93;;
6027;SDS011;3042;43.194;27.646;2023-06-22T09:23:42;23.97;;;22.30;;
6027;SDS011;3042;43.194;27.646;2023-06-22T09:26:12;21.83;;;19.87;;
6027;SDS011;3042;43.194;27.646;2023-06-22T09:28:41;23.13;;;21.43;;
6027;SDS011;3042;43.194;27.646;2023-06-22T09:31:08;22.10;;;20.47;;
6027;SDS011;3042;43.194;27.646;2023-06-22T09:33:35;21.20;;;20.00;;
6027;SDS011;3042;43.194;27.646;2023-06-22T09:36:03;21.20;;;19.90;;
6027;SDS011;3042;43.194;27.646;2023-06-22T09:38:34;23.30;;;21.80;;
6027;SDS011;3042;43.194;27.646;2023-06-22T09:41:01;22.73;;;21.13;;
6027;SDS011;3042;43.194;27.646;2023-06-22T09:43:31;21.40;;;20.00;;
6027;SDS011;3042;43.194;27.646;2023-06-22T09:46:02;25.58;;;23.27;;
6027;SDS011;3042;43.194;27.646;2023-06-22T09:48:29;22.03;;;20.57;;
6027;SDS011;3042;43.194;27.646;2023-06-22T09:50:57;20.97;;;19.67;;
6027;SDS011;3042;43.194;27.646;2023-06-22T09:53:24;22.07;;;20.57;;
6027;SDS011;3042;43.194;27.646;2023-06-22T09:55:51;25.70;;;23.90;;
6027;SDS011;3042;43.194;27.646;2023-06-22T09:58:18;24.23;;;22.00;;
6027;SDS011;3042;43.194;27.646;2023-06-22T10:00:46;22.87;;;20.90;;
6027;SDS011;3042;43.194;27.646;2023-06-22T10:03:15;22.20;;;20.83;;
6027;SDS011;3042;43.194;27.646;2023-06-22T10:05:44;24.17;;;22.57;;
6027;SDS011;3042;43.194;27.646;2023-06-22T10:08:11;34.43;;;22.67;;
6027;SDS011;3042;43.194;27.646;2023-06-22T10:10:38;22.40;;;20.50;;
6027;SDS011;3042;43.194;27.646;2023-06-22T10:13:08;23.40;;;21.90;;
6027;SDS011;3042;43.194;27.646;2023-06-22T10:15:36;21.13;;;19.67;;
6027;SDS011;3042;43.194;27.646;2023-06-22T10:18:04;24.30;;;22.10;;
6027;SDS011;3042;43.194;27.646;2023-06-22T10:20:33;23.10;;;21.13;;
6027;SDS011;3042;43.194;27.646;2023-06-22T10:23:01;23.60;;;21.73;;
6027;SDS011;3042;43.194;27.646;2023-06-22T10:25:28;23.73;;;21.80;;
6027;SDS011;3042;43.194;27.646;2023-06-22T10:27:55;24.03;;;21.83;;
6027;SDS011;3042;43.194;27.646;2023-06-22T10:30:23;41.13;;;22.60;;
6027;SDS011;3042;43.194;27.646;2023-06-22T10:32:50;23.00;;;21.30;;
6027;SDS011;3042;43.194;27.646;2023-06-22T10:35:17;24.00;;;21.73;;
6027;SDS011;3042;43.194;27.646;2023-06-22T10:37:46;23.70;;;21.90;;
6027;SDS011;3042;43.194;27.646;2023-06-22T10:40:16;22.40;;;20.53;;
6027;SDS011;3042;43.194;27.646;2023-06-22T10:42:44;34.97;;;22.73;;
6027;SDS011;3042;43.194;27.646;2023-06-22T10:45:11;23.90;;;21.50;;
6027;SDS011;3042;43.194;27.646;2023-06-22T10:47:38;25.43;;;22.80;;
6027;SDS011;3042;43.194;27.646;2023-06-22T10:50:07;28.20;;;22.73;;
6027;SDS011;3042;43.194;27.646;2023-06-22T10:52:34;24.67;;;22.13;;
6027;SDS011;3042;43.194;27.646;2023-06-22T10:55:03;22.77;;;21.20;;
6027;SDS011;3042;43.194;27.646;2023-06-22T10:57:31;24.43;;;22.43;;
6027;SDS011;3042;43.194;27.646;2023-06-22T10:59:58;23.03;;;21.30;;
6027;SDS011;3042;43.194;27.646;2023-06-22T11:02:26;25.33;;;22.50;;
6027;SDS011;3042;43.194;27.646;2023-06-22T11:04:53;27.13;;;24.70;;
6027;SDS011;3042;43.194;27.646;2023-06-22T11:07:21;24.17;;;22.37;;
6027;SDS011;3042;43.194;27.646;2023-06-22T11:09:48;27.17;;;25.03;;
6027;SDS011;3042;43.194;27.646;2023-06-22T11:12:17;24.70;;;22.90;;
6027;SDS011;3042;43.194;27.646;2023-06-22T11:14:44;33.70;;;22.80;;
6027;SDS011;3042;43.194;27.646;2023-06-22T11:17:11;22.23;;;20.10;;
6027;SDS011;3042;43.194;27.646;2023-06-22T11:19:38;26.97;;;24.80;;
6027;SDS011;3042;43.194;27.646;2023-06-22T11:22:06;24.20;;;22.00;;
6027;SDS011;3042;43.194;27.646;2023-06-22T11:24:33;24.70;;;22.17;;
6027;SDS011;3042;43.194;27.646;2023-06-22T11:27:00;23.93;;;21.60;;
6027;SDS011;3042;43.194;27.646;2023-06-22T11:29:29;25.40;;;22.90;;
6027;SDS011;3042;43.194;27.646;2023-06-22T11:31:56;24.37;;;22.17;;
6027;SDS011;3042;43.194;27.646;2023-06-22T11:34:23;38.73;;;24.10;;
6027;SDS011;3042;43.194;27.646;2023-06-22T11:36:50;28.57;;;26.00;;
6027;SDS011;3042;43.194;27.646;2023-06-22T11:39:17;23.03;;;21.30;;
6027;SDS011;3042;43.194;27.646;2023-06-22T11:41:45;23.67;;;21.53;;
6027;SDS011;3042;43.194;27.646;2023-06-22T11:44:12;26.07;;;24.10;;
6027;SDS011;3042;43.194;27.646;2023-06-22T11:46:41;25.40;;;23.13;;
6027;SDS011;3042;43.194;27.646;2023-06-22T11:49:08;29.33;;;24.87;;
6027;SDS011;3042;43.194;27.646;2023-06-22T11:51:35;25.07;;;22.50;;
6027;SDS011;3042;43.194;27.646;2023-06-22T11:54:02;23.67;;;21.90;;
6027;SDS011;3042;43.194;27.646;2023-06-22T11:56:30;22.80;;;21.20;;
6027;SDS011;3042;43.194;27.646;2023-06-22T11:58:57;29.00;;;24.10;;
6027;SDS011;3042;43.194;27.646;2023-06-22T12:01:24;28.57;;;26.33;;
6027;SDS011;3042;43.194;27.646;2023-06-22T12:03:53;32.07;;;29.87;;
6027;SDS011;3042;43.194;27.646;2023-06-22T12:06:20;36.40;;;24.53;;
6027;SDS011;3042;43.194;27.646;2023-06-22T12:08:47;25.13;;;22.63;;
6027;SDS011;3042;43.194;27.646;2023-06-22T12:11:14;28.47;;;22.10;;
6027;SDS011;3042;43.194;27.646;2023-06-22T12:13:42;36.27;;;25.47;;
6027;SDS011;3042;43.194;27.646;2023-06-22T12:16:09;24.63;;;22.73;;
6027;SDS011;3042;43.194;27.646;2023-06-22T12:18:37;23.60;;;21.63;;
6027;SDS011;3042;43.194;27.646;2023-06-22T12:21:06;22.87;;;21.17;;
6027;SDS011;3042;43.194;27.646;2023-06-22T12:23:33;27.30;;;24.80;;
6027;SDS011;3042;43.194;27.646;2023-06-22T12:26:00;26.47;;;23.20;;
6027;SDS011;3042;43.194;27.646;2023-06-22T12:28:27;24.00;;;21.60;;
6027;SDS011;3042;43.194;27.646;2023-06-22T12:30:54;24.87;;;21.13;;
6027;SDS011;3042;43.194;27.646;2023-06-22T12:33:21;22.97;;;20.93;;
6027;SDS011;3042;43.194;27.646;2023-06-22T12:35:49;22.57;;;20.67;;
6027;SDS011;3042;43.194;27.646;2023-06-22T12:38:17;28.60;;;22.60;;
6027;SDS011;3042;43.194;27.646;2023-06-22T12:40:44;21.37;;;19.73;;
6027;SDS011;3042;43.194;27.646;2023-06-22T12:43:12;24.60;;;22.40;;
6027;SDS011;3042;43.194;27.646;2023-06-22T12:45:39;22.57;;;21.00;;
6027;SDS011;3042;43.194;27.646;2023-06-22T12:48:06;22.43;;;20.30;;
6027;SDS011;3042;43.194;27.646;2023-06-22T12:50:34;22.53;;;20.70;;
6027;SDS011;3042;43.194;27.646;2023-06-22T12:53:01;22.50;;;20.30;;
6027;SDS011;3042;43.194;27.646;2023-06-22T12:55:30;23.93;;;22.10;;
6027;SDS011;3042;43.194;27.646;2023-06-22T12:57:58;22.97;;;21.20;;
6027;SDS011;3042;43.194;27.646;2023-06-22T13:00:26;21.83;;;20.00;;
6027;SDS011;3042;43.194;27.646;2023-06-22T13:02:53;23.70;;;21.67;;
6027;SDS011;3042;43.194;27.646;2023-06-22T13:05:20;23.37;;;21.13;;
6027;SDS011;3042;43.194;27.646;2023-06-22T13:07:48;21.77;;;19.87;;
6027;SDS011;3042;43.194;27.646;2023-06-22T13:10:15;23.03;;;21.03;;
6027;SDS011;3042;43.194;27.646;2023-06-22T13:12:44;24.50;;;22.67;;
6027;SDS011;3042;43.194;27.646;2023-06-22T13:15:12;21.47;;;19.83;;
6027;SDS011;3042;43.194;27.646;2023-06-22T13:17:39;21.97;;;20.40;;
6027;SDS011;3042;43.194;27.646;2023-06-22T13:20:06;35.83;;;21.57;;
6027;SDS011;3042;43.194;27.646;2023-06-22T13:22:34;22.77;;;21.00;;
6027;SDS011;3042;43.194;27.646;2023-06-22T13:25:05;30.10;;;21.53;;
6027;SDS011;3042;43.194;27.646;2023-06-22T13:27:35;33.07;;;20.77;;
6027;SDS011;3042;43.194;27.646;2023-06-22T13:30:05;23.47;;;21.67;;
6027;SDS011;3042;43.194;27.646;2023-06-22T13:32:33;30.67;;;23.97;;
6027;SDS011;3042;43.194;27.646;2023-06-22T13:35:00;21.20;;;19.60;;
6027;SDS011;3042;43.194;27.646;2023-06-22T13:37:28;21.93;;;19.97;;
6027;SDS011;3042;43.194;27.646;2023-06-22T13:39:56;23.23;;;21.17;;
6027;SDS011;3042;43.194;27.646;2023-06-22T13:42:24;21.70;;;20.13;;
6027;SDS011;3042;43.194;27.646;2023-06-22T13:44:51;28.67;;;21.63;;
6027;SDS011;3042;43.194;27.646;2023-06-22T13:47:21;41.53;;;22.00;;
6027;SDS011;3042;43.194;27.646;2023-06-22T13:49:49;23.93;;;22.03;;
6027;SDS011;3042;43.194;27.646;2023-06-22T13:52:16;24.90;;;21.70;;
6027;SDS011;3042;43.194;27.646;2023-06-22T13:54:44;23.60;;;21.60;;
6027;SDS011;3042;43.194;27.646;2023-06-22T13:57:14;29.57;;;21.80;;
6027;SDS011;3042;43.194;27.646;2023-06-22T13:59:43;29.60;;;22.30;;
6027;SDS011;3042;43.194;27.646;2023-06-22T14:02:10;26.30;;;23.50;;
6027;SDS011;3042;43.194;27.646;2023-06-22T14:04:39;23.57;;;21.13;;
6027;SDS011;3042;43.194;27.646;2023-06-22T14:07:06;21.90;;;20.30;;
6027;SDS011;3042;43.194;27.646;2023-06-22T14:09:33;25.58;;;23.48;;
6027;SDS011;3042;43.194;27.646;2023-06-22T14:12:02;26.07;;;24.33;;
6027;SDS011;3042;43.194;27.646;2023-06-22T14:14:31;28.73;;;21.40;;
6027;SDS011;3042;43.194;27.646;2023-06-22T14:16:58;22.27;;;20.10;;
6027;SDS011;3042;43.194;27.646;2023-06-22T14:19:25;24.10;;;21.50;;
6027;SDS011;3042;43.194;27.646;2023-06-22T14:21:54;26.43;;;21.30;;
6027;SDS011;3042;43.194;27.646;2023-06-22T14:24:22;22.93;;;21.00;;
6027;SDS011;3042;43.194;27.646;2023-06-22T14:26:49;21.80;;;19.67;;
6027;SDS011;3042;43.194;27.646;2023-06-22T14:29:17;25.73;;;23.50;;
6027;SDS011;3042;43.194;27.646;2023-06-22T14:31:45;21.40;;;19.90;;
6027;SDS011;3042;43.194;27.646;2023-06-22T14:34:13;22.27;;;20.67;;
6027;SDS011;3042;43.194;27.646;2023-06-22T14:36:40;24.53;;;20.40;;
6027;SDS011;3042;43.194;27.646;2023-06-22T14:39:09;23.13;;;21.00;;
6027;SDS011;3042;43.194;27.646;2023-06-22T14:41:36;23.30;;;20.43;;